Time;durP1;ratioP1;P1;durP2;ratioP2;P2;SDS_P1;SDS_P2;PMS_P1;PMS_P2;Temp;Humidity;BMP_temperature;BMP_pressure;BME280_temperature;BME280_humidity;BME280_pressure;Samples;Min_cycle;Max_cycle;Signal;HPM_P1;HPM_P2
2023/12/14 00:01:29;;;;;;;27.70;10.73;;;;;;;;;;5047990;28;20025;-61
2023/12/14 00:03:54;;;;;;;24.33;9.87;;;;;;;;;;5027208;28;20501;-62
2023/12/14 00:06:19;;;;;;;22.90;9.10;;;;;;;;;;5022241;28;20053;-61
2023/12/14 00:08:44;;;;;;;25.05;10.48;;;;;;;;;;5022081;28;20497;-62
2023/12/14 00:11:10;;;;;;;22.98;9.23;;;;;;;;;;5025860;28;20043;-60
2023/12/14 00:13:35;;;;;;;26.63;9.93;;;;;;;;;;5030252;28;20396;-61
2023/12/14 00:16:01;;;;;;;27.70;9.90;;;;;;;;;;5030712;28;20074;-61
2023/12/14 00:18:26;;;;;;;24.48;10.13;;;;;;;;;;5030793;28;20440;-61
2023/12/14 00:20:52;;;;;;;24.92;10.27;;;;;;;;;;5025153;28;20022;-61
2023/12/14 00:23:17;;;;;;;24.63;9.77;;;;;;;;;;5019061;28;20017;-61
2023/12/14 00:25:42;;;;;;;25.80;9.20;;;;;;;;;;5030813;28;20095;-60
2023/12/14 00:28:07;;;;;;;26.35;10.50;;;;;;;;;;5031645;28;20048;-62
2023/12/14 00:30:33;;;;;;;22.38;9.18;;;;;;;;;;5030836;28;20087;-62
2023/12/14 00:32:58;;;;;;;23.10;9.63;;;;;;;;;;5028948;28;20454;-60
2023/12/14 00:35:23;;;;;;;23.27;10.05;;;;;;;;;;5030985;28;20029;-62
2023/12/14 00:37:48;;;;;;;23.83;9.77;;;;;;;;;;5018212;28;20046;-62
2023/12/14 00:40:13;;;;;;;24.02;9.88;;;;;;;;;;5017410;28;20092;-61
2023/12/14 00:42:38;;;;;;;23.50;9.20;;;;;;;;;;5030040;28;20030;-62
2023/12/14 00:45:04;;;;;;;26.25;10.40;;;;;;;;;;5030568;28;20052;-61
2023/12/14 00:47:29;;;;;;;26.35;9.98;;;;;;;;;;5030453;28;20052;-61
2023/12/14 00:49:54;;;;;;;22.67;9.50;;;;;;;;;;5027958;28;20052;-61
2023/12/14 00:52:19;;;;;;;20.75;8.50;;;;;;;;;;5029447;28;20060;-62
2023/12/14 00:54:44;;;;;;;22.52;9.20;;;;;;;;;;5028586;28;20026;-61
2023/12/14 00:57:10;;;;;;;22.10;9.55;;;;;;;;;;5018368;28;20042;-61
2023/12/14 00:59:35;;;;;;;23.97;9.47;;;;;;;;;;5023703;28;20061;-61
2023/12/14 01:02:00;;;;;;;25.90;10.23;;;;;;;;;;5023824;28;20548;-60
2023/12/14 01:04:25;;;;;;;26.60;10.65;;;;;;;;;;5019882;28;20147;-61
2023/12/14 01:06:50;;;;;;;27.73;10.47;;;;;;;;;;5028534;28;20068;-61
2023/12/14 01:09:15;;;;;;;25.27;9.83;;;;;;;;;;5029569;28;20079;-61
2023/12/14 01:11:41;;;;;;;33.00;11.45;;;;;;;;;;5025214;28;20393;-61
2023/12/14 01:14:06;;;;;;;27.45;10.88;;;;;;;;;;5019038;28;20151;-62
2023/12/14 01:16:31;;;;;;;24.07;9.83;;;;;;;;;;5029662;28;20021;-61
2023/12/14 01:18:56;;;;;;;26.05;10.43;;;;;;;;;;5032096;28;20018;-61
2023/12/14 01:21:21;;;;;;;27.93;10.60;;;;;;;;;;5033390;28;20032;-60
2023/12/14 01:23:46;;;;;;;29.83;11.27;;;;;;;;;;5033823;28;20122;-61
2023/12/14 01:26:12;;;;;;;23.13;9.83;;;;;;;;;;5034303;28;20014;-61
2023/12/14 01:28:37;;;;;;;27.37;11.13;;;;;;;;;;5030214;28;20033;-61
2023/12/14 01:31:02;;;;;;;25.58;10.10;;;;;;;;;;5025620;28;20018;-61
2023/12/14 01:33:27;;;;;;;27.90;10.60;;;;;;;;;;5033354;28;20029;-61
2023/12/14 01:35:52;;;;;;;25.02;10.50;;;;;;;;;;5033682;28;20060;-61
2023/12/14 01:38:17;;;;;;;24.52;9.65;;;;;;;;;;5027533;28;20025;-61
2023/12/14 01:40:42;;;;;;;23.70;9.82;;;;;;;;;;5033652;28;20037;-61
2023/12/14 01:43:11;;;;;;;26.03;10.30;;;;;;;;;;5031731;28;20052;-61
2023/12/14 01:45:36;;;;;;;28.05;10.93;;;;;;;;;;5024346;28;20026;-61
2023/12/14 01:48:02;;;;;;;24.48;10.40;;;;;;;;;;5029250;28;20027;-61
2023/12/14 01:50:27;;;;;;;22.70;9.57;;;;;;;;;;5033595;28;20579;-61
2023/12/14 01:52:52;;;;;;;25.23;10.65;;;;;;;;;;5032776;28;20025;-61
2023/12/14 01:55:17;;;;;;;27.80;10.57;;;;;;;;;;5024065;28;20033;-62
2023/12/14 01:57:42;;;;;;;23.73;9.45;;;;;;;;;;5031246;28;20375;-61
2023/12/14 02:00:09;;;;;;;27.10;10.23;;;;;;;;;;5033190;28;20025;-62
2023/12/14 02:02:35;;;;;;;;;;;;;;;;;;5021722;28;20086;-61
2023/12/14 02:05:00;;;;;;;23.42;9.23;;;;;;;;;;5033004;28;20007;-62
2023/12/14 02:07:25;;;;;;;21.17;8.93;;;;;;;;;;5035333;28;20021;-62
2023/12/14 02:09:50;;;;;;;22.70;9.18;;;;;;;;;;5040068;28;20021;-61
2023/12/14 02:12:16;;;;;;;23.20;9.52;;;;;;;;;;5035111;28;20029;-62
2023/12/14 02:14:41;;;;;;;18.90;8.30;;;;;;;;;;5036606;28;20026;-61
2023/12/14 02:17:06;;;;;;;19.58;8.18;;;;;;;;;;5036526;28;20021;-61
2023/12/14 02:19:31;;;;;;;22.00;8.55;;;;;;;;;;5028946;28;20021;-61
2023/12/14 02:21:56;;;;;;;17.25;7.63;;;;;;;;;;5028177;28;20068;-62
2023/12/14 02:24:21;;;;;;;18.77;7.50;;;;;;;;;;5013507;28;20371;-61
2023/12/14 02:26:47;;;;;;;16.63;7.00;;;;;;;;;;5013463;28;20025;-60
2023/12/14 02:29:12;;;;;;;18.60;7.32;;;;;;;;;;5031572;28;20045;-60
2023/12/14 02:31:37;;;;;;;16.42;6.70;;;;;;;;;;5031620;28;20049;-62
2023/12/14 02:34:02;;;;;;;16.05;6.68;;;;;;;;;;5031953;28;20448;-62
2023/12/14 02:36:28;;;;;;;17.40;7.22;;;;;;;;;;5027301;28;20054;-62
2023/12/14 02:38:53;;;;;;;15.13;6.47;;;;;;;;;;5021092;28;20030;-64
2023/12/14 02:41:18;;;;;;;19.27;7.38;;;;;;;;;;5012160;28;20054;-61
2023/12/14 02:43:43;;;;;;;15.83;6.47;;;;;;;;;;5021215;28;20022;-60
2023/12/14 02:46:08;;;;;;;17.25;7.00;;;;;;;;;;5032434;28;20485;-62
2023/12/14 02:48:34;;;;;;;15.10;6.45;;;;;;;;;;5032440;28;20025;-62
2023/12/14 02:51:00;;;;;;;17.45;6.82;;;;;;;;;;5032071;28;20025;-62
2023/12/14 02:53:25;;;;;;;18.83;7.85;;;;;;;;;;5030166;28;20504;-62
2023/12/14 02:55:50;;;;;;;16.83;6.67;;;;;;;;;;5026387;28;20033;-62
2023/12/14 02:58:15;;;;;;;14.45;6.50;;;;;;;;;;5032432;28;20030;-62
2023/12/14 03:00:40;;;;;;;15.68;6.60;;;;;;;;;;5030159;28;20022;-61
2023/12/14 03:03:05;;;;;;;12.88;5.68;;;;;;;;;;5032061;28;20045;-61
2023/12/14 03:05:31;;;;;;;14.65;5.90;;;;;;;;;;5032217;28;20091;-62
2023/12/14 03:07:56;;;;;;;14.65;6.03;;;;;;;;;;5031911;28;20031;-61
2023/12/14 03:10:21;;;;;;;13.88;6.25;;;;;;;;;;5029677;28;20034;-62
2023/12/14 03:12:46;;;;;;;13.43;6.18;;;;;;;;;;5023118;28;20756;-62
2023/12/14 03:15:11;;;;;;;13.60;6.10;;;;;;;;;;5028663;28;20523;-62
2023/12/14 03:17:37;;;;;;;12.93;5.43;;;;;;;;;;5031741;28;20033;-62
2023/12/14 03:20:03;;;;;;;13.35;6.28;;;;;;;;;;5031770;28;20037;-61
2023/12/14 03:22:28;;;;;;;14.88;6.07;;;;;;;;;;5030791;28;20099;-62
2023/12/14 03:24:53;;;;;;;13.17;5.80;;;;;;;;;;5028060;28;20481;-62
2023/12/14 03:27:19;;;;;;;15.00;6.20;;;;;;;;;;5029704;28;20488;-62
2023/12/14 03:29:45;;;;;;;13.73;5.90;;;;;;;;;;5020775;28;20029;-63
2023/12/14 03:32:10;;;;;;;15.70;6.63;;;;;;;;;;5027030;28;20028;-63
2023/12/14 03:34:35;;;;;;;15.43;6.40;;;;;;;;;;5025796;28;20109;-60
2023/12/14 03:37:00;;;;;;;14.60;6.10;;;;;;;;;;5031063;28;20504;-62
2023/12/14 03:39:25;;;;;;;16.08;6.57;;;;;;;;;;5029041;28;20029;-62
2023/12/14 03:41:50;;;;;;;14.25;5.97;;;;;;;;;;5030130;28;20064;-62
2023/12/14 03:44:15;;;;;;;14.90;6.40;;;;;;;;;;5023203;28;20557;-62
2023/12/14 03:46:41;;;;;;;13.30;5.88;;;;;;;;;;5019859;28;20029;-63
2023/12/14 03:49:06;;;;;;;14.05;6.38;;;;;;;;;;5031600;28;20057;-62
2023/12/14 03:51:31;;;;;;;12.53;5.73;;;;;;;;;;5030813;28;20526;-62
2023/12/14 03:53:56;;;;;;;15.67;6.07;;;;;;;;;;5031128;28;20504;-62
2023/12/14 03:56:22;;;;;;;16.63;6.53;;;;;;;;;;5016456;28;20052;-61
2023/12/14 03:58:47;;;;;;;15.43;6.95;;;;;;;;;;5031144;28;20416;-61
2023/12/14 04:01:19;;;;;;;14.40;6.53;;;;;;;;;;5022808;28;20034;-62
2023/12/14 04:03:44;;;;;;;15.65;6.00;;;;;;;;;;5019289;28;20085;-62
2023/12/14 04:06:10;;;;;;;13.75;6.13;;;;;;;;;;5029172;28;20492;-62
2023/12/14 04:08:35;;;;;;;14.55;5.80;;;;;;;;;;5030711;28;20049;-62
2023/12/14 04:11:01;;;;;;;15.97;6.77;;;;;;;;;;5030147;28;20052;-62
2023/12/14 04:13:26;;;;;;;14.38;6.72;;;;;;;;;;5030042;28;20442;-62
2023/12/14 04:15:51;;;;;;;16.75;6.43;;;;;;;;;;5030591;28;20083;-63
2023/12/14 04:18:16;;;;;;;15.07;6.35;;;;;;;;;;5022249;28;20026;-63
2023/12/14 04:20:41;;;;;;;17.73;7.65;;;;;;;;;;5017532;28;20529;-63
2023/12/14 04:23:06;;;;;;;18.45;6.97;;;;;;;;;;5018954;28;20030;-63
2023/12/14 04:25:31;;;;;;;16.00;6.90;;;;;;;;;;5028853;28;20024;-63
2023/12/14 04:27:57;;;;;;;15.80;6.27;;;;;;;;;;5030550;28;20500;-62
2023/12/14 04:30:22;;;;;;;13.90;6.23;;;;;;;;;;5030351;28;20129;-63
2023/12/14 04:32:47;;;;;;;13.85;6.57;;;;;;;;;;5022996;28;20030;-63
2023/12/14 04:35:12;;;;;;;15.77;6.35;;;;;;;;;;5028865;28;20100;-62
2023/12/14 04:37:37;;;;;;;17.77;7.03;;;;;;;;;;5021209;28;20040;-63
2023/12/14 04:40:03;;;;;;;15.13;7.07;;;;;;;;;;5016107;28;20105;-62
2023/12/14 04:42:28;;;;;;;17.77;7.40;;;;;;;;;;5010343;28;20041;-62
2023/12/14 04:44:53;;;;;;;17.45;6.82;;;;;;;;;;5011062;28;20589;-62
2023/12/14 04:47:18;;;;;;;16.13;6.77;;;;;;;;;;5009547;28;20022;-62
2023/12/14 04:49:43;;;;;;;19.00;7.95;;;;;;;;;;5011032;28;20026;-62
2023/12/14 04:52:09;;;;;;;14.40;7.20;;;;;;;;;;5021959;28;20029;-62
2023/12/14 04:54:37;;;;;;;15.10;6.90;;;;;;;;;;5018631;28;20025;-62
2023/12/14 04:57:02;;;;;;;15.75;7.38;;;;;;;;;;5020476;28;20025;-61
2023/12/14 04:59:28;;;;;;;18.53;7.60;;;;;;;;;;5028470;28;20061;-61
2023/12/14 05:01:53;;;;;;;18.70;7.70;;;;;;;;;;5034951;28;20056;-62
2023/12/14 05:04:18;;;;;;;17.63;7.65;;;;;;;;;;5033583;28;20071;-62
2023/12/14 05:06:43;;;;;;;15.63;7.03;;;;;;;;;;5025574;28;20026;-61
2023/12/14 05:09:08;;;;;;;14.70;7.00;;;;;;;;;;5031390;28;20029;-61
2023/12/14 05:11:33;;;;;;;16.42;8.35;;;;;;;;;;5031956;28;20014;-62
2023/12/14 05:13:58;;;;;;;20.52;11.52;;;;;;;;;;5025407;28;20137;-61
2023/12/14 05:16:27;;;;;;;17.73;8.60;;;;;;;;;;5026887;28;20033;-61
2023/12/14 05:18:54;;;;;;;16.55;8.13;;;;;;;;;;5025279;28;20021;-61
2023/12/14 05:21:20;;;;;;;19.63;13.98;;;;;;;;;;5017963;28;20041;-61
2023/12/14 05:23:45;;;;;;;16.80;7.73;;;;;;;;;;5026930;28;20014;-61
2023/12/14 05:26:10;;;;;;;19.13;8.53;;;;;;;;;;5026737;28;20033;-61
2023/12/14 05:28:35;;;;;;;17.23;7.45;;;;;;;;;;5027137;28;20539;-61
2023/12/14 05:31:00;;;;;;;23.33;9.65;;;;;;;;;;5025678;28;20053;-62
2023/12/14 05:33:26;;;;;;;20.73;8.70;;;;;;;;;;5024476;28;20029;-60
2023/12/14 05:35:51;;;;;;;23.43;9.73;;;;;;;;;;5013137;28;20448;-61
2023/12/14 05:38:16;;;;;;;26.40;11.93;;;;;;;;;;5011802;28;20511;-61
2023/12/14 05:40:42;;;;;;;30.73;12.10;;;;;;;;;;5025907;28;20045;-61
2023/12/14 05:43:07;;;;;;;28.23;11.02;;;;;;;;;;5025996;28;20022;-61
2023/12/14 05:45:32;;;;;;;28.13;11.18;;;;;;;;;;5026368;28;20358;-61
2023/12/14 05:47:57;;;;;;;27.58;11.32;;;;;;;;;;5026285;28;20028;-62
2023/12/14 05:50:22;;;;;;;27.17;10.80;;;;;;;;;;5024575;28;20108;-61
2023/12/14 05:52:48;;;;;;;30.60;11.37;;;;;;;;;;5014969;28;20014;-60
2023/12/14 05:55:13;;;;;;;30.23;11.05;;;;;;;;;;5024844;28;20397;-61
2023/12/14 05:57:38;;;;;;;29.93;11.33;;;;;;;;;;5013803;28;20453;-60
2023/12/14 06:00:05;;;;;;;24.73;10.07;;;;;;;;;;5013691;28;20104;-62
2023/12/14 06:02:31;;;;;;;27.70;10.02;;;;;;;;;;5024777;28;20079;-60
2023/12/14 06:04:57;;;;;;;27.65;10.13;;;;;;;;;;5027611;28;20028;-61
2023/12/14 06:07:23;;;;;;;28.88;10.23;;;;;;;;;;5026267;28;20023;-61
2023/12/14 06:09:48;;;;;;;31.03;10.30;;;;;;;;;;5029405;28;20022;-61
2023/12/14 06:12:13;;;;;;;36.30;12.63;;;;;;;;;;5020380;28;20585;-61
2023/12/14 06:14:39;;;;;;;33.15;11.90;;;;;;;;;;5023540;28;20018;-60
2023/12/14 06:17:04;;;;;;;43.95;13.30;;;;;;;;;;5033351;28;20052;-61
2023/12/14 06:19:29;;;;;;;27.05;9.10;;;;;;;;;;5024233;28;20026;-61
2023/12/14 06:21:54;;;;;;;28.67;9.30;;;;;;;;;;5031606;28;20084;-59
2023/12/14 06:24:20;;;;;;;23.30;8.00;;;;;;;;;;5033214;28;20060;-61
2023/12/14 06:26:46;;;;;;;26.70;9.30;;;;;;;;;;5028886;28;20022;-60
2023/12/14 06:29:12;;;;;;;21.00;7.10;;;;;;;;;;5022389;28;20049;-60
2023/12/14 06:31:37;;;;;;;18.52;6.60;;;;;;;;;;5020311;28;20040;-61
2023/12/14 06:34:03;;;;;;;15.23;5.65;;;;;;;;;;5021271;28;20075;-60
2023/12/14 06:36:31;;;;;;;15.77;5.63;;;;;;;;;;5013277;28;20025;-60
2023/12/14 06:38:57;;;;;;;12.88;5.38;;;;;;;;;;5016324;28;20037;-59
2023/12/14 06:41:22;;;;;;;13.73;5.55;;;;;;;;;;5023097;28;20034;-60
2023/12/14 06:43:48;;;;;;;14.63;5.38;;;;;;;;;;5021152;28;20022;-62
2023/12/14 06:46:13;;;;;;;12.15;5.05;;;;;;;;;;5022319;28;20028;-60
2023/12/14 06:48:38;;;;;;;15.30;6.10;;;;;;;;;;5030878;28;20485;-61
2023/12/14 06:51:04;;;;;;;18.52;6.32;;;;;;;;;;5034076;28;20182;-61
2023/12/14 06:53:30;;;;;;;14.17;5.37;;;;;;;;;;5028724;28;20026;-62
2023/12/14 06:55:55;;;;;;;14.38;5.28;;;;;;;;;;5021584;28;20485;-62
2023/12/14 06:58:20;;;;;;;13.98;6.25;;;;;;;;;;5027830;28;20025;-60
2023/12/14 07:00:45;;;;;;;13.73;8.60;;;;;;;;;;5024632;28;20038;-63
2023/12/14 07:03:10;;;;;;;12.33;5.03;;;;;;;;;;5029217;28;20137;-63
2023/12/14 07:05:36;;;;;;;14.37;5.50;;;;;;;;;;5031024;28;20022;-61
2023/12/14 07:08:01;;;;;;;14.20;6.25;;;;;;;;;;5029410;28;20033;-60
2023/12/14 07:10:26;;;;;;;14.90;6.27;;;;;;;;;;5030131;28;20103;-61
2023/12/14 07:12:52;;;;;;;15.33;6.47;;;;;;;;;;5030432;28;20025;-61
2023/12/14 07:15:18;;;;;;;19.42;7.57;;;;;;;;;;5029750;28;20495;-60
2023/12/14 07:17:43;;;;;;;20.90;8.07;;;;;;;;;;5029174;28;20459;-61
2023/12/14 07:20:09;;;;;;;18.90;7.40;;;;;;;;;;5031391;28;20087;-61
2023/12/14 07:22:34;;;;;;;23.48;8.05;;;;;;;;;;5031703;28;20440;-61
2023/12/14 07:25:00;;;;;;;23.08;8.10;;;;;;;;;;5031839;28;20109;-62
2023/12/14 07:27:25;;;;;;;18.90;7.73;;;;;;;;;;5029190;28;20416;-62
2023/12/14 07:29:50;;;;;;;24.00;8.40;;;;;;;;;;5027317;28;20064;-63
2023/12/14 07:32:15;;;;;;;30.37;10.60;;;;;;;;;;5029715;28;20044;-62
2023/12/14 07:34:41;;;;;;;27.05;8.90;;;;;;;;;;5031122;28;20078;-62
2023/12/14 07:37:06;;;;;;;27.57;9.57;;;;;;;;;;5029792;28;20028;-60
2023/12/14 07:39:31;;;;;;;20.17;8.40;;;;;;;;;;5025158;28;20466;-62
2023/12/14 07:41:56;;;;;;;27.87;9.37;;;;;;;;;;5029131;28;20485;-62
2023/12/14 07:44:22;;;;;;;22.87;8.37;;;;;;;;;;5025175;28;20447;-60
2023/12/14 07:46:47;;;;;;;26.30;9.43;;;;;;;;;;5028393;28;20083;-63
2023/12/14 07:49:12;;;;;;;24.73;8.40;;;;;;;;;;5030678;28;20029;-62
2023/12/14 07:51:38;;;;;;;23.03;8.63;;;;;;;;;;5026032;28;20504;-62
2023/12/14 07:54:04;;;;;;;21.55;9.18;;;;;;;;;;5021089;28;20025;-62
2023/12/14 07:56:29;;;;;;;22.60;8.35;;;;;;;;;;5020592;28;20096;-62
2023/12/14 07:58:54;;;;;;;20.60;8.13;;;;;;;;;;5021937;28;20059;-61
2023/12/14 08:01:20;;;;;;;21.52;8.43;;;;;;;;;;5026763;28;20041;-62
2023/12/14 08:03:46;;;;;;;23.25;8.73;;;;;;;;;;5027458;28;20239;-62
2023/12/14 08:06:11;;;;;;;23.35;8.48;;;;;;;;;;5029560;28;20017;-62
2023/12/14 08:08:37;;;;;;;22.30;7.63;;;;;;;;;;5031569;28;20009;-61
2023/12/14 08:11:04;;;;;;;19.98;8.15;;;;;;;;;;5016350;28;20128;-62
2023/12/14 08:13:30;;;;;;;18.95;8.48;;;;;;;;;;5021455;28;20108;-63
2023/12/14 08:15:55;;;;;;;21.33;8.25;;;;;;;;;;5011335;28;20030;-61
2023/12/14 08:18:20;;;;;;;17.70;7.20;;;;;;;;;;5011365;28;20096;-62
2023/12/14 08:20:45;;;;;;;20.75;7.60;;;;;;;;;;5010934;28;20041;-62
2023/12/14 08:23:10;;;;;;;16.58;6.97;;;;;;;;;;5010900;28;20049;-62
2023/12/14 08:25:35;;;;;;;16.58;6.78;;;;;;;;;;5015991;28;20037;-62
2023/12/14 08:28:00;;;;;;;17.40;7.30;;;;;;;;;;5023576;28;20501;-62
2023/12/14 08:30:26;;;;;;;16.25;6.47;;;;;;;;;;5011007;28;20022;-62
2023/12/14 08:32:51;;;;;;;18.73;7.17;;;;;;;;;;5010394;28;20393;-62
2023/12/14 08:35:16;;;;;;;13.50;6.18;;;;;;;;;;5016297;28;20080;-62
2023/12/14 08:37:41;;;;;;;16.27;6.07;;;;;;;;;;5030945;28;20029;-62
2023/12/14 08:40:07;;;;;;;14.87;6.37;;;;;;;;;;5030900;28;20030;-61
2023/12/14 08:42:32;;;;;;;14.20;5.40;;;;;;;;;;5026561;28;20025;-61
2023/12/14 08:44:57;;;;;;;11.80;5.37;;;;;;;;;;5018725;28;20045;-61
2023/12/14 08:47:23;;;;;;;11.98;5.57;;;;;;;;;;5010743;28;20470;-61
2023/12/14 08:49:48;;;;;;;12.73;5.47;;;;;;;;;;5015949;28;20511;-62
2023/12/14 08:52:14;;;;;;;12.07;5.28;;;;;;;;;;5022645;28;20060;-62
2023/12/14 08:54:39;;;;;;;11.70;5.43;;;;;;;;;;5030703;28;20021;-61
2023/12/14 08:57:04;;;;;;;12.13;5.17;;;;;;;;;;5030246;28;20541;-62
2023/12/14 08:59:29;;;;;;;9.50;3.93;;;;;;;;;;5031156;28;20517;-61
2023/12/14 09:01:55;;;;;;;9.55;4.43;;;;;;;;;;5026461;28;20780;-61
2023/12/14 09:04:21;;;;;;;12.63;4.95;;;;;;;;;;5014047;28;20551;-62
2023/12/14 09:06:46;;;;;;;10.05;3.97;;;;;;;;;;5018531;28;20037;-60
2023/12/14 09:09:11;;;;;;;12.02;4.38;;;;;;;;;;5010678;28;20354;-61
2023/12/14 09:11:36;;;;;;;11.47;4.00;;;;;;;;;;5009985;28;20034;-60
2023/12/14 09:14:02;;;;;;;11.77;3.92;;;;;;;;;;5021701;28;20029;-62
2023/12/14 09:16:27;;;;;;;10.52;3.63;;;;;;;;;;5030256;28;20031;-63
2023/12/14 09:18:52;;;;;;;9.20;3.97;;;;;;;;;;5024755;28;20098;-62
2023/12/14 09:21:17;;;;;;;10.20;4.10;;;;;;;;;;5017659;28;20033;-60
2023/12/14 09:23:42;;;;;;;10.53;3.77;;;;;;;;;;5010718;28;20024;-62
2023/12/14 09:26:08;;;;;;;9.77;4.10;;;;;;;;;;5010780;28;20018;-61
2023/12/14 09:28:33;;;;;;;10.57;3.50;;;;;;;;;;5011186;28;20033;-59
2023/12/14 09:30:58;;;;;;;8.13;3.03;;;;;;;;;;5016696;28;20418;-60
2023/12/14 09:33:23;;;;;;;8.15;2.95;;;;;;;;;;5022147;28;20025;-60
2023/12/14 09:35:48;;;;;;;8.27;3.13;;;;;;;;;;5030417;28;20033;-63
2023/12/14 09:38:16;;;;;;;8.37;3.23;;;;;;;;;;5030422;28;20497;-60
2023/12/14 09:40:42;;;;;;;11.35;4.25;;;;;;;;;;5030099;28;20063;-63
2023/12/14 09:43:08;;;;;;;10.65;2.88;;;;;;;;;;5033607;28;20017;-62
2023/12/14 09:45:34;;;;;;;7.55;3.55;;;;;;;;;;5024784;28;20030;-63
2023/12/14 09:48:00;;;;;;;7.00;3.33;;;;;;;;;;5020712;28;20014;-62
2023/12/14 09:50:25;;;;;;;8.65;3.40;;;;;;;;;;5013933;28;20030;-62
2023/12/14 09:52:51;;;;;;;7.18;2.90;;;;;;;;;;5013679;28;20516;-62
2023/12/14 09:55:16;;;;;;;7.88;3.67;;;;;;;;;;5014471;28;20463;-61
2023/12/14 09:57:41;;;;;;;7.85;3.65;;;;;;;;;;5013943;28;20041;-61
2023/12/14 10:00:10;;;;;;;7.15;3.10;;;;;;;;;;5013505;28;20398;-61
2023/12/14 10:02:36;;;;;;;6.80;3.10;;;;;;;;;;5023529;28;20033;-62
2023/12/14 10:05:01;;;;;;;8.32;4.18;;;;;;;;;;5027928;28;20018;-62
2023/12/14 10:07:26;;;;;;;7.20;2.90;;;;;;;;;;5033698;28;20461;-65
2023/12/14 10:09:52;;;;;;;8.30;3.60;;;;;;;;;;5033845;28;20104;-62
2023/12/14 10:12:18;;;;;;;9.15;3.70;;;;;;;;;;5033013;28;20033;-63
2023/12/14 10:14:43;;;;;;;7.22;3.13;;;;;;;;;;5033266;28;20017;-63
2023/12/14 10:17:18;;;;;;;7.68;2.95;;;;;;;;;;5023924;28;20533;-62
2023/12/14 10:19:44;;;;;;;7.03;3.25;;;;;;;;;;5013622;28;20026;-62
2023/12/14 10:22:10;;;;;;;5.93;2.67;;;;;;;;;;5010871;28;20521;-60
2023/12/14 10:24:35;;;;;;;6.85;3.08;;;;;;;;;;5028478;28;20021;-62
2023/12/14 10:27:04;;;;;;;5.68;2.42;;;;;;;;;;5033532;28;20030;-62
2023/12/14 10:29:32;;;;;;;7.38;2.85;;;;;;;;;;5023330;28;20052;-62
2023/12/14 10:31:58;;;;;;;5.47;2.13;;;;;;;;;;5012642;28;20398;-62
2023/12/14 10:34:23;;;;;;;7.05;2.70;;;;;;;;;;5022850;28;20030;-63
2023/12/14 10:36:48;;;;;;;6.78;2.67;;;;;;;;;;5012285;28;20030;-62
2023/12/14 10:39:15;;;;;;;8.02;3.08;;;;;;;;;;5014093;28;20029;-62
2023/12/14 10:41:40;;;;;;;7.57;2.95;;;;;;;;;;5020132;28;20045;-62
2023/12/14 10:44:06;;;;;;;8.27;3.33;;;;;;;;;;5032869;28;20018;-62
2023/12/14 10:46:32;;;;;;;11.07;3.75;;;;;;;;;;5032410;28;20100;-61
2023/12/14 10:48:57;;;;;;;8.93;3.92;;;;;;;;;;5023585;28;20133;-62
2023/12/14 10:51:24;;;;;;;10.38;3.75;;;;;;;;;;5014435;28;20101;-62
2023/12/14 10:53:49;;;;;;;12.55;4.35;;;;;;;;;;5012718;28;20047;-61
2023/12/14 10:56:16;;;;;;;10.50;4.67;;;;;;;;;;5012376;28;20038;-62
2023/12/14 10:58:52;;;;;;;12.27;4.20;;;;;;;;;;5031928;28;20388;-62
2023/12/14 11:01:19;;;;;;;11.13;4.57;;;;;;;;;;5031814;28;20152;-62
2023/12/14 11:03:44;;;;;;;11.93;4.95;;;;;;;;;;5032330;28;20013;-62
2023/12/14 11:06:29;;;;;;;11.15;4.60;;;;;;;;;;5022618;28;20033;-62
2023/12/14 11:08:56;;;;;;;11.32;4.20;;;;;;;;;;5012480;28;20030;-63
2023/12/14 11:11:21;;;;;;;;;;;;;;;;;;5012131;28;20052;-61
2023/12/14 11:13:50;;;;;;;10.52;4.15;;;;;;;;;;5012134;28;19921;-61
2023/12/14 11:16:15;;;;;;;11.98;4.35;;;;;;;;;;5012550;28;20045;-61
2023/12/14 11:18:40;;;;;;;14.13;5.13;;;;;;;;;;5012100;28;20074;-63
2023/12/14 11:21:06;;;;;;;11.57;4.77;;;;;;;;;;5016838;28;20041;-63
2023/12/14 11:23:32;;;;;;;10.00;3.92;;;;;;;;;;5016946;28;20026;-61
2023/12/14 11:26:05;;;;;;;9.88;4.05;;;;;;;;;;5022216;28;20024;-63
2023/12/14 11:28:31;;;;;;;11.18;4.32;;;;;;;;;;5014380;28;20410;-62
2023/12/14 11:30:56;;;;;;;11.50;4.53;;;;;;;;;;5010601;28;20018;-62
2023/12/14 11:33:22;;;;;;;11.80;4.30;;;;;;;;;;5011180;28;20018;-62
2023/12/14 11:35:47;;;;;;;9.98;4.10;;;;;;;;;;5023249;28;20041;-63
2023/12/14 11:38:15;;;;;;;9.27;3.80;;;;;;;;;;5027318;28;20474;-61
2023/12/14 11:40:40;;;;;;;10.40;4.40;;;;;;;;;;5023375;28;20026;-61
2023/12/14 11:43:09;;;;;;;12.43;4.33;;;;;;;;;;5014278;28;20026;-63
2023/12/14 11:45:35;;;;;;;9.93;4.30;;;;;;;;;;5012506;28;20021;-62
2023/12/14 11:48:04;;;;;;;10.70;4.32;;;;;;;;;;5012228;28;20478;-62
2023/12/14 11:50:29;;;;;;;10.05;4.38;;;;;;;;;;5011607;28;20021;-62
2023/12/14 11:52:55;;;;;;;13.65;4.95;;;;;;;;;;5013877;28;20029;-62
2023/12/14 11:55:21;;;;;;;12.18;4.85;;;;;;;;;;5022716;28;20029;-62
2023/12/14 11:57:46;;;;;;;10.05;4.22;;;;;;;;;;5012137;28;20486;-61
2023/12/14 12:00:12;;;;;;;10.45;4.18;;;;;;;;;;5029711;28;20033;-61
2023/12/14 12:02:37;;;;;;;12.63;4.75;;;;;;;;;;5031021;28;20029;-62
2023/12/14 12:05:02;;;;;;;10.38;3.92;;;;;;;;;;5031560;28;20389;-61
2023/12/14 12:07:27;;;;;;;16.03;4.97;;;;;;;;;;5030500;28;20087;-61
2023/12/14 12:09:53;;;;;;;12.07;4.47;;;;;;;;;;5023282;28;20543;-61
2023/12/14 12:12:18;;;;;;;11.23;4.30;;;;;;;;;;5015524;28;20033;-61
2023/12/14 12:14:43;;;;;;;9.77;3.80;;;;;;;;;;5011897;28;20093;-61
2023/12/14 12:17:09;;;;;;;13.10;4.55;;;;;;;;;;5014112;28;20067;-61
2023/12/14 12:19:36;;;;;;;12.70;4.78;;;;;;;;;;5019363;28;20283;-63
2023/12/14 12:22:01;;;;;;;12.38;4.60;;;;;;;;;;5017091;28;20112;-61
2023/12/14 12:24:27;;;;;;;12.55;4.13;;;;;;;;;;5011322;28;20550;-60
2023/12/14 12:26:52;;;;;;;13.40;5.43;;;;;;;;;;5011514;28;20021;-61
2023/12/14 12:29:17;;;;;;;12.02;4.32;;;;;;;;;;5011391;28;20385;-61
2023/12/14 12:31:43;;;;;;;15.40;5.00;;;;;;;;;;5010322;28;20485;-63
2023/12/14 12:34:08;;;;;;;11.47;4.60;;;;;;;;;;5019588;28;20025;-63
2023/12/14 12:36:34;;;;;;;17.17;5.13;;;;;;;;;;5013150;28;20511;-63
2023/12/14 12:38:59;;;;;;;11.25;4.45;;;;;;;;;;5011082;28;20389;-63
2023/12/14 12:41:24;;;;;;;11.33;4.40;;;;;;;;;;5014959;28;20040;-64
2023/12/14 12:43:49;;;;;;;13.52;4.40;;;;;;;;;;5028322;28;20017;-61
2023/12/14 12:46:14;;;;;;;11.37;4.43;;;;;;;;;;5030710;28;20032;-60
2023/12/14 12:48:39;;;;;;;13.23;4.63;;;;;;;;;;5031024;28;20032;-59
2023/12/14 12:51:05;;;;;;;12.07;4.40;;;;;;;;;;5031232;28;20114;-61
2023/12/14 12:53:30;;;;;;;13.80;4.57;;;;;;;;;;5031065;28;20061;-60
2023/12/14 12:55:55;;;;;;;11.55;4.43;;;;;;;;;;5020616;28;20021;-63
2023/12/14 12:58:20;;;;;;;13.73;4.60;;;;;;;;;;5014928;28;20047;-63
2023/12/14 13:00:45;;;;;;;14.68;4.70;;;;;;;;;;5010682;28;20113;-63
2023/12/14 13:03:11;;;;;;;13.73;5.18;;;;;;;;;;5010374;28;20029;-61
2023/12/14 13:05:36;;;;;;;16.17;5.70;;;;;;;;;;5010947;28;20071;-61
2023/12/14 13:08:01;;;;;;;12.57;4.75;;;;;;;;;;5009510;28;20029;-62
2023/12/14 13:10:27;;;;;;;13.68;5.18;;;;;;;;;;5010301;28;20022;-61
2023/12/14 13:12:52;;;;;;;14.00;4.93;;;;;;;;;;5019379;28;20127;-60
2023/12/14 13:15:18;;;;;;;12.93;4.72;;;;;;;;;;5017017;28;20038;-61
2023/12/14 13:17:44;;;;;;;14.13;5.05;;;;;;;;;;5014520;28;20624;-62
2023/12/14 13:20:09;;;;;;;13.70;5.00;;;;;;;;;;5026584;28;20037;-61
2023/12/14 13:22:34;;;;;;;15.50;4.93;;;;;;;;;;5015396;28;20204;-61
2023/12/14 13:24:59;;;;;;;15.00;5.35;;;;;;;;;;5014540;28;20022;-62
2023/12/14 13:27:25;;;;;;;14.33;5.57;;;;;;;;;;5014349;28;20957;-61
2023/12/14 13:29:50;;;;;;;13.77;5.38;;;;;;;;;;5016553;28;20026;-62
2023/12/14 13:32:15;;;;;;;12.13;5.13;;;;;;;;;;5018826;28;20029;-63
2023/12/14 13:34:40;;;;;;;19.02;6.18;;;;;;;;;;5032459;28;20998;-61
2023/12/14 13:37:06;;;;;;;16.13;5.90;;;;;;;;;;5021539;28;20493;-61
2023/12/14 13:39:33;;;;;;;15.93;6.32;;;;;;;;;;5020213;28;20025;-61
2023/12/14 13:41:58;;;;;;;16.08;6.07;;;;;;;;;;5022695;28;20029;-62
2023/12/14 13:44:23;;;;;;;18.42;6.57;;;;;;;;;;5029602;28;20036;-61
2023/12/14 13:46:48;;;;;;;15.18;6.32;;;;;;;;;;5034600;28;20483;-61
2023/12/14 13:49:14;;;;;;;15.73;6.18;;;;;;;;;;5033697;28;20021;-60
2023/12/14 13:51:39;;;;;;;17.25;6.45;;;;;;;;;;5016434;28;20034;-61
2023/12/14 13:54:04;;;;;;;16.73;6.32;;;;;;;;;;5022234;28;20504;-59
2023/12/14 13:56:29;;;;;;;18.02;6.78;;;;;;;;;;5022614;28;20119;-61
2023/12/14 13:58:54;;;;;;;17.38;6.47;;;;;;;;;;5024634;28;20021;-61
2023/12/14 14:01:20;;;;;;;17.33;6.15;;;;;;;;;;5024678;28;20502;-60
2023/12/14 14:03:46;;;;;;;15.52;6.85;;;;;;;;;;5012725;28;20025;-61
2023/12/14 14:06:11;;;;;;;18.13;6.32;;;;;;;;;;5021193;28;20463;-61
2023/12/14 14:08:37;;;;;;;16.97;6.67;;;;;;;;;;5012677;28;20104;-60
2023/12/14 14:11:02;;;;;;;15.80;5.90;;;;;;;;;;5012651;28;20018;-61
2023/12/14 14:13:27;;;;;;;15.03;5.60;;;;;;;;;;5012048;28;20024;-61
2023/12/14 14:15:53;;;;;;;16.58;5.95;;;;;;;;;;5018960;28;20429;-63
2023/12/14 14:18:18;;;;;;;13.50;5.70;;;;;;;;;;5016680;28;20080;-63
2023/12/14 14:20:43;;;;;;;15.53;5.60;;;;;;;;;;5025408;28;20037;-63